sensor_id;sensor_type;location;lat;lon;timestamp;pressure;altitude;pressure_sealevel;temperature;humidity
16030;BME280;34770;49.272;11.070;2024-03-02T00:01:07;96654.47;;;6.42;100.00
16030;BME280;34770;49.272;11.070;2024-03-02T00:03:36;96645.88;;;6.48;100.00
16030;BME280;34770;49.272;11.070;2024-03-02T00:06:02;96645.16;;;6.56;100.00
16030;BME280;34770;49.272;11.070;2024-03-02T00:08:28;96649.25;;;6.60;100.00
16030;BME280;34770;49.272;11.070;2024-03-02T00:10:59;96642.75;;;6.53;100.00
16030;BME280;34770;49.272;11.070;2024-03-02T00:13:25;96644.84;;;6.49;100.00
16030;BME280;34770;49.272;11.070;2024-03-02T00:15:55;96640.47;;;6.48;100.00
16030;BME280;34770;49.272;11.070;2024-03-02T00:18:34;96635.78;;;6.40;100.00
16030;BME280;34770;49.272;11.070;2024-03-02T00:21:00;96635.50;;;6.43;100.00
16030;BME280;34770;49.272;11.070;2024-03-02T00:23:29;96652.09;;;6.58;100.00
16030;BME280;34770;49.272;11.070;2024-03-02T00:25:55;96646.25;;;6.43;100.00
16030;BME280;34770;49.272;11.070;2024-03-02T00:33:19;96653.59;;;6.22;100.00
16030;BME280;34770;49.272;11.070;2024-03-02T00:35:46;96642.78;;;6.13;100.00
16030;BME280;34770;49.272;11.070;2024-03-02T00:38:12;96653.81;;;6.10;100.00
16030;BME280;34770;49.272;11.070;2024-03-02T00:40:39;96646.88;;;5.98;100.00
16030;BME280;34770;49.272;11.070;2024-03-02T00:43:05;96630.69;;;5.88;100.00
16030;BME280;34770;49.272;11.070;2024-03-02T00:45:30;96654.19;;;5.96;100.00
16030;BME280;34770;49.272;11.070;2024-03-02T00:47:56;96649.66;;;5.87;100.00
16030;BME280;34770;49.272;11.070;2024-03-02T00:50:22;96654.03;;;5.88;100.00
16030;BME280;34770;49.272;11.070;2024-03-02T00:52:48;96631.47;;;5.79;100.00
16030;BME280;34770;49.272;11.070;2024-03-02T00:55:14;96653.19;;;5.87;100.00
16030;BME280;34770;49.272;11.070;2024-03-02T00:57:39;96637.28;;;5.74;100.00
16030;BME280;34770;49.272;11.070;2024-03-02T01:00:06;96660.41;;;5.87;100.00
16030;BME280;34770;49.272;11.070;2024-03-02T01:02:35;96658.72;;;5.86;100.00
16030;BME280;34770;49.272;11.070;2024-03-02T01:05:00;96656.94;;;5.75;100.00
16030;BME280;34770;49.272;11.070;2024-03-02T01:07:26;96669.38;;;5.76;100.00
16030;BME280;34770;49.272;11.070;2024-03-02T01:09:51;96657.91;;;5.74;100.00
16030;BME280;34770;49.272;11.070;2024-03-02T01:12:17;96660.88;;;5.71;100.00
16030;BME280;34770;49.272;11.070;2024-03-02T01:14:42;96654.91;;;5.67;100.00
16030;BME280;34770;49.272;11.070;2024-03-02T01:17:08;96655.22;;;5.74;100.00
16030;BME280;34770;49.272;11.070;2024-03-02T01:19:33;96659.66;;;5.84;100.00
16030;BME280;34770;49.272;11.070;2024-03-02T01:21:59;96664.25;;;5.94;100.00
16030;BME280;34770;49.272;11.070;2024-03-02T01:24:24;96662.16;;;5.97;100.00
16030;BME280;34770;49.272;11.070;2024-03-02T01:26:49;96642.03;;;5.92;100.00
16030;BME280;34770;49.272;11.070;2024-03-02T01:29:15;96660.41;;;5.87;100.00
16030;BME280;34770;49.272;11.070;2024-03-02T01:31:41;96661.78;;;5.81;100.00
16030;BME280;34770;49.272;11.070;2024-03-02T01:34:08;96657.59;;;5.88;100.00
16030;BME280;34770;49.272;11.070;2024-03-02T01:36:33;96664.66;;;5.89;100.00
16030;BME280;34770;49.272;11.070;2024-03-02T01:38:59;96664.53;;;5.91;100.00
16030;BME280;34770;49.272;11.070;2024-03-02T01:41:24;96662.97;;;5.88;100.00
16030;BME280;34770;49.272;11.070;2024-03-02T01:43:50;96649.59;;;5.77;100.00
16030;BME280;34770;49.272;11.070;2024-03-02T01:46:15;96660.34;;;5.77;100.00
16030;BME280;34770;49.272;11.070;2024-03-02T01:48:41;96648.41;;;5.70;100.00
16030;BME280;34770;49.272;11.070;2024-03-02T01:51:06;96652.72;;;5.82;100.00
16030;BME280;34770;49.272;11.070;2024-03-02T01:53:32;96652.91;;;5.90;100.00
16030;BME280;34770;49.272;11.070;2024-03-02T01:55:58;96660.25;;;5.88;100.00
16030;BME280;34770;49.272;11.070;2024-03-02T01:58:23;96662.97;;;5.88;100.00
16030;BME280;34770;49.272;11.070;2024-03-02T02:00:48;96667.22;;;5.91;100.00
16030;BME280;34770;49.272;11.070;2024-03-02T02:03:15;96649.03;;;5.83;100.00
16030;BME280;34770;49.272;11.070;2024-03-02T02:05:42;96655.53;;;5.80;100.00
16030;BME280;34770;49.272;11.070;2024-03-02T02:08:07;96654.34;;;5.64;100.00
16030;BME280;34770;49.272;11.070;2024-03-02T02:10:33;96662.97;;;5.67;100.00
16030;BME280;34770;49.272;11.070;2024-03-02T02:12:58;96652.44;;;5.55;100.00
16030;BME280;34770;49.272;11.070;2024-03-02T02:15:28;96657.56;;;5.58;100.00
16030;BME280;34770;49.272;11.070;2024-03-02T02:17:55;96643.78;;;5.42;100.00
16030;BME280;34770;49.272;11.070;2024-03-02T02:20:21;96646.44;;;5.42;100.00
16030;BME280;34770;49.272;11.070;2024-03-02T02:23:00;96665.78;;;5.36;100.00
16030;BME280;34770;49.272;11.070;2024-03-02T02:25:26;96660.16;;;5.39;100.00
16030;BME280;34770;49.272;11.070;2024-03-02T02:27:52;96657.84;;;5.34;100.00
16030;BME280;34770;49.272;11.070;2024-03-02T02:30:19;96663.34;;;5.33;100.00
16030;BME280;34770;49.272;11.070;2024-03-02T02:32:45;96656.41;;;5.30;100.00
16030;BME280;34770;49.272;11.070;2024-03-02T02:35:10;96658.09;;;5.31;100.00
16030;BME280;34770;49.272;11.070;2024-03-02T02:37:36;96662.34;;;5.34;100.00
16030;BME280;34770;49.272;11.070;2024-03-02T02:40:02;96662.25;;;5.35;100.00
16030;BME280;34770;49.272;11.070;2024-03-02T02:42:30;96659.66;;;5.34;100.00
16030;BME280;34770;49.272;11.070;2024-03-02T02:44:55;96658.16;;;5.41;100.00
16030;BME280;34770;49.272;11.070;2024-03-02T02:47:21;96667.94;;;5.42;100.00
16030;BME280;34770;49.272;11.070;2024-03-02T02:49:46;96649.41;;;5.39;100.00
16030;BME280;34770;49.272;11.070;2024-03-02T02:52:12;96662.88;;;5.48;100.00
16030;BME280;34770;49.272;11.070;2024-03-02T02:54:37;96641.78;;;5.44;100.00
16030;BME280;34770;49.272;11.070;2024-03-02T02:57:03;96658.53;;;5.57;100.00
16030;BME280;34770;49.272;11.070;2024-03-02T02:59:28;96658.72;;;5.65;100.00
16030;BME280;34770;49.272;11.070;2024-03-02T03:01:54;96664.25;;;5.73;100.00
16030;BME280;34770;49.272;11.070;2024-03-02T03:04:19;96667.97;;;5.81;100.00
16030;BME280;34770;49.272;11.070;2024-03-02T03:06:45;96664.84;;;5.76;100.00
16030;BME280;34770;49.272;11.070;2024-03-02T03:09:11;96652.81;;;5.71;100.00
16030;BME280;34770;49.272;11.070;2024-03-02T03:11:37;96669.25;;;5.77;100.00
16030;BME280;34770;49.272;11.070;2024-03-02T03:14:02;96661.78;;;5.81;100.00
16030;BME280;34770;49.272;11.070;2024-03-02T03:16:28;96646.00;;;5.67;100.00
16030;BME280;34770;49.272;11.070;2024-03-02T03:18:53;96660.34;;;5.77;100.00
16030;BME280;34770;49.272;11.070;2024-03-02T03:21:19;96663.03;;;5.77;100.00
16030;BME280;34770;49.272;11.070;2024-03-02T03:23:44;96653.34;;;5.65;100.00
16030;BME280;34770;49.272;11.070;2024-03-02T03:26:10;96665.91;;;5.64;100.00
16030;BME280;34770;49.272;11.070;2024-03-02T03:28:35;96669.19;;;5.68;100.00
16030;BME280;34770;49.272;11.070;2024-03-02T03:31:01;96664.88;;;5.56;100.00
16030;BME280;34770;49.272;11.070;2024-03-02T03:33:27;96658.69;;;5.55;100.00
16030;BME280;34770;49.272;11.070;2024-03-02T03:35:53;96667.50;;;5.67;100.00
16030;BME280;34770;49.272;11.070;2024-03-02T03:38:18;96662.13;;;5.67;100.00
16030;BME280;34770;49.272;11.070;2024-03-02T03:40:44;96677.03;;;5.80;100.00
16030;BME280;34770;49.272;11.070;2024-03-02T03:43:10;96668.41;;;5.77;100.00
16030;BME280;34770;49.272;11.070;2024-03-02T03:45:35;96677.31;;;5.77;100.00
16030;BME280;34770;49.272;11.070;2024-03-02T03:48:02;96663.28;;;5.74;100.00
16030;BME280;34770;49.272;11.070;2024-03-02T03:50:28;96675.88;;;5.73;100.00
16030;BME280;34770;49.272;11.070;2024-03-02T03:52:53;96673.44;;;5.70;100.00
16030;BME280;34770;49.272;11.070;2024-03-02T03:55:18;96674.56;;;5.68;100.00
16030;BME280;34770;49.272;11.070;2024-03-02T03:57:44;96654.38;;;5.43;100.00
16030;BME280;34770;49.272;11.070;2024-03-02T04:00:10;96679.44;;;5.53;100.00
16030;BME280;34770;49.272;11.070;2024-03-02T04:02:36;96669.78;;;5.41;100.00
16030;BME280;34770;49.272;11.070;2024-03-02T04:05:01;96658.50;;;5.26;100.00
16030;BME280;34770;49.272;11.070;2024-03-02T04:07:30;96668.66;;;5.23;100.00
16030;BME280;34770;49.272;11.070;2024-03-02T04:09:55;96645.47;;;5.01;100.00
16030;BME280;34770;49.272;11.070;2024-03-02T04:12:21;96666.44;;;5.07;100.00
16030;BME280;34770;49.272;11.070;2024-03-02T04:14:47;96670.88;;;4.97;100.00
16030;BME280;34770;49.272;11.070;2024-03-02T04:17:12;96664.06;;;4.93;100.00
16030;BME280;34770;49.272;11.070;2024-03-02T04:19:38;96667.97;;;4.89;100.00
16030;BME280;34770;49.272;11.070;2024-03-02T04:22:04;96668.63;;;4.82;100.00
16030;BME280;34770;49.272;11.070;2024-03-02T04:24:29;96670.72;;;4.78;100.00
16030;BME280;34770;49.272;11.070;2024-03-02T04:26:55;96666.13;;;4.69;100.00
16030;BME280;34770;49.272;11.070;2024-03-02T04:29:20;96678.56;;;4.70;100.00
16030;BME280;34770;49.272;11.070;2024-03-02T04:31:46;96686.00;;;4.66;100.00
16030;BME280;34770;49.272;11.070;2024-03-02T04:34:11;96685.28;;;4.64;100.00
16030;BME280;34770;49.272;11.070;2024-03-02T04:36:37;96677.38;;;4.63;100.00
16030;BME280;34770;49.272;11.070;2024-03-02T04:39:02;96684.31;;;4.65;100.00
16030;BME280;34770;49.272;11.070;2024-03-02T04:41:28;96684.88;;;4.69;100.00
16030;BME280;34770;49.272;11.070;2024-03-02T04:43:53;96691.50;;;4.65;100.00
16030;BME280;34770;49.272;11.070;2024-03-02T04:46:18;96687.75;;;4.56;100.00
16030;BME280;34770;49.272;11.070;2024-03-02T04:48:44;96698.44;;;4.67;100.00
16030;BME280;34770;49.272;11.070;2024-03-02T04:51:09;96695.50;;;4.71;100.00
16030;BME280;34770;49.272;11.070;2024-03-02T04:53:35;96699.81;;;4.62;100.00
16030;BME280;34770;49.272;11.070;2024-03-02T04:56:01;96699.06;;;4.71;100.00
16030;BME280;34770;49.272;11.070;2024-03-02T04:58:45;96692.81;;;4.71;100.00
16030;BME280;34770;49.272;11.070;2024-03-02T05:01:10;96699.06;;;4.71;100.00
16030;BME280;34770;49.272;11.070;2024-03-02T05:03:36;96708.06;;;4.70;100.00
16030;BME280;34770;49.272;11.070;2024-03-02T05:06:01;96694.44;;;4.62;100.00
16030;BME280;34770;49.272;11.070;2024-03-02T05:08:27;96696.66;;;4.57;100.00
16030;BME280;34770;49.272;11.070;2024-03-02T05:10:52;96703.47;;;4.61;100.00
16030;BME280;34770;49.272;11.070;2024-03-02T05:13:17;96693.47;;;4.63;100.00
16030;BME280;34770;49.272;11.070;2024-03-02T05:15:43;96706.44;;;4.47;100.00
16030;BME280;34770;49.272;11.070;2024-03-02T05:18:09;96702.63;;;4.49;100.00
16030;BME280;34770;49.272;11.070;2024-03-02T05:20:34;96703.28;;;4.42;100.00
16030;BME280;34770;49.272;11.070;2024-03-02T05:22:59;96712.16;;;4.42;100.00
16030;BME280;34770;49.272;11.070;2024-03-02T05:25:25;96711.31;;;4.42;100.00
16030;BME280;34770;49.272;11.070;2024-03-02T05:27:50;96714.03;;;4.31;100.00
16030;BME280;34770;49.272;11.070;2024-03-02T05:30:16;96696.84;;;4.22;100.00
16030;BME280;34770;49.272;11.070;2024-03-02T05:32:41;96704.19;;;4.20;100.00
16030;BME280;34770;49.272;11.070;2024-03-02T05:35:07;96709.16;;;4.25;100.00
16030;BME280;34770;49.272;11.070;2024-03-02T05:37:33;96711.47;;;4.29;100.00
16030;BME280;34770;49.272;11.070;2024-03-02T05:39:59;96711.47;;;4.40;100.00
16030;BME280;34770;49.272;11.070;2024-03-02T05:42:24;96689.91;;;4.31;100.00
16030;BME280;34770;49.272;11.070;2024-03-02T05:44:50;96705.84;;;4.21;100.00
16030;BME280;34770;49.272;11.070;2024-03-02T05:47:15;96701.47;;;4.31;100.00
16030;BME280;34770;49.272;11.070;2024-03-02T05:49:41;96720.72;;;4.36;100.00
16030;BME280;34770;49.272;11.070;2024-03-02T05:52:06;96728.88;;;4.46;100.00
16030;BME280;34770;49.272;11.070;2024-03-02T05:54:32;96697.44;;;4.37;100.00
16030;BME280;34770;49.272;11.070;2024-03-02T05:56:57;96706.09;;;4.40;100.00
16030;BME280;34770;49.272;11.070;2024-03-02T05:59:41;96696.94;;;4.43;100.00
16030;BME280;34770;49.272;11.070;2024-03-02T06:02:07;96724.88;;;4.40;100.00
16030;BME280;34770;49.272;11.070;2024-03-02T06:04:32;96720.31;;;4.41;100.00
16030;BME280;34770;49.272;11.070;2024-03-02T06:06:57;96711.34;;;4.31;100.00
16030;BME280;34770;49.272;11.070;2024-03-02T06:09:23;96721.69;;;4.35;100.00
16030;BME280;34770;49.272;11.070;2024-03-02T06:11:49;96701.94;;;4.36;100.00
16030;BME280;34770;49.272;11.070;2024-03-02T06:14:15;96716.69;;;4.42;100.00
16030;BME280;34770;49.272;11.070;2024-03-02T06:16:40;96721.41;;;4.49;100.00
16030;BME280;34770;49.272;11.070;2024-03-02T06:19:06;96716.78;;;4.51;100.00
16030;BME280;34770;49.272;11.070;2024-03-02T06:21:32;96710.81;;;4.48;100.00
16030;BME280;34770;49.272;11.070;2024-03-02T06:23:57;96691.97;;;4.27;100.00
16030;BME280;34770;49.272;11.070;2024-03-02T06:26:23;96671.41;;;4.05;100.00
16030;BME280;34770;49.272;11.070;2024-03-02T06:28:48;96719.03;;;4.24;100.00
16030;BME280;34770;49.272;11.070;2024-03-02T06:31:14;96696.78;;;4.13;100.00
16030;BME280;34770;49.272;11.070;2024-03-02T06:33:39;96711.59;;;4.17;100.00
16030;BME280;34770;49.272;11.070;2024-03-02T06:36:06;96713.66;;;4.13;100.00
16030;BME280;34770;49.272;11.070;2024-03-02T06:38:37;96716.25;;;4.03;100.00
16030;BME280;34770;49.272;11.070;2024-03-02T06:41:02;96721.13;;;4.09;100.00
16030;BME280;34770;49.272;11.070;2024-03-02T06:43:28;96719.16;;;4.23;100.00
16030;BME280;34770;49.272;11.070;2024-03-02T06:45:53;96720.00;;;4.34;100.00
16030;BME280;34770;49.272;11.070;2024-03-02T06:48:19;96699.69;;;4.21;100.00
16030;BME280;34770;49.272;11.070;2024-03-02T06:50:49;96717.53;;;4.42;100.00
16030;BME280;34770;49.272;11.070;2024-03-02T06:53:15;96714.72;;;4.44;100.00
16030;BME280;34770;49.272;11.070;2024-03-02T06:55:44;96717.22;;;4.67;100.00
16030;BME280;34770;49.272;11.070;2024-03-02T06:58:11;96714.75;;;4.76;100.00
16030;BME280;34770;49.272;11.070;2024-03-02T07:00:37;96702.41;;;4.84;100.00
16030;BME280;34770;49.272;11.070;2024-03-02T07:03:02;96716.84;;;5.04;100.00
16030;BME280;34770;49.272;11.070;2024-03-02T07:05:28;96713.13;;;5.16;100.00
16030;BME280;34770;49.272;11.070;2024-03-02T07:07:53;96720.88;;;5.30;100.00
16030;BME280;34770;49.272;11.070;2024-03-02T07:10:19;96710.56;;;5.35;100.00
16030;BME280;34770;49.272;11.070;2024-03-02T07:12:44;96688.38;;;5.33;100.00
16030;BME280;34770;49.272;11.070;2024-03-02T07:15:09;96714.28;;;5.64;100.00
16030;BME280;34770;49.272;11.070;2024-03-02T07:18:08;96694.81;;;5.72;100.00
16030;BME280;34770;49.272;11.070;2024-03-02T07:20:33;96709.25;;;5.92;100.00
16030;BME280;34770;49.272;11.070;2024-03-02T07:22:59;96723.34;;;6.14;100.00
16030;BME280;34770;49.272;11.070;2024-03-02T07:25:24;96716.59;;;6.29;100.00
16030;BME280;34770;49.272;11.070;2024-03-02T07:27:50;96724.88;;;6.47;100.00
16030;BME280;34770;49.272;11.070;2024-03-02T07:30:16;96734.38;;;6.61;100.00
16030;BME280;34770;49.272;11.070;2024-03-02T07:32:42;96739.38;;;6.75;100.00
16030;BME280;34770;49.272;11.070;2024-03-02T07:35:13;96698.25;;;6.63;100.00
16030;BME280;34770;49.272;11.070;2024-03-02T07:37:39;96732.44;;;6.91;100.00
16030;BME280;34770;49.272;11.070;2024-03-02T07:40:06;96726.78;;;6.94;100.00
16030;BME280;34770;49.272;11.070;2024-03-02T07:42:34;96720.00;;;7.00;100.00
16030;BME280;34770;49.272;11.070;2024-03-02T07:45:00;96734.59;;;7.07;100.00
16030;BME280;34770;49.272;11.070;2024-03-02T07:47:25;96723.66;;;6.99;100.00
16030;BME280;34770;49.272;11.070;2024-03-02T07:49:51;96734.16;;;7.12;100.00
16030;BME280;34770;49.272;11.070;2024-03-02T07:52:16;96733.75;;;7.16;100.00
16030;BME280;34770;49.272;11.070;2024-03-02T07:54:41;96732.47;;;7.20;100.00
16030;BME280;34770;49.272;11.070;2024-03-02T07:57:07;96739.72;;;7.29;99.60
16030;BME280;34770;49.272;11.070;2024-03-02T07:59:33;96736.28;;;7.37;99.44
16030;BME280;34770;49.272;11.070;2024-03-02T08:01:59;96738.56;;;7.32;98.94
16030;BME280;34770;49.272;11.070;2024-03-02T08:04:24;96744.38;;;7.37;98.67
16030;BME280;34770;49.272;11.070;2024-03-02T08:06:50;96734.88;;;7.42;98.97
16030;BME280;34770;49.272;11.070;2024-03-02T08:09:15;96738.00;;;7.57;98.83
16030;BME280;34770;49.272;11.070;2024-03-02T08:11:41;96744.53;;;7.54;97.23
16030;BME280;34770;49.272;11.070;2024-03-02T08:14:06;96746.19;;;7.65;97.97
16030;BME280;34770;49.272;11.070;2024-03-02T08:16:32;96746.03;;;7.76;97.56
16030;BME280;34770;49.272;11.070;2024-03-02T08:18:58;96739.22;;;7.82;97.60
16030;BME280;34770;49.272;11.070;2024-03-02T08:21:24;96744.16;;;7.96;97.62
16030;BME280;34770;49.272;11.070;2024-03-02T08:23:50;96724.56;;;7.94;96.34
16030;BME280;34770;49.272;11.070;2024-03-02T08:26:16;96725.09;;;7.97;95.67
16030;BME280;34770;49.272;11.070;2024-03-02T08:28:41;96730.09;;;8.02;94.73
16030;BME280;34770;49.272;11.070;2024-03-02T08:31:07;96740.97;;;8.10;94.06
16030;BME280;34770;49.272;11.070;2024-03-02T08:33:33;96737.84;;;8.14;94.13
16030;BME280;34770;49.272;11.070;2024-03-02T08:35:59;96746.78;;;8.15;93.77
16030;BME280;34770;49.272;11.070;2024-03-02T08:38:24;96745.75;;;8.26;94.11
16030;BME280;34770;49.272;11.070;2024-03-02T08:40:50;96749.53;;;8.42;93.06
16030;BME280;34770;49.272;11.070;2024-03-02T08:43:16;96724.16;;;8.35;92.68
16030;BME280;34770;49.272;11.070;2024-03-02T08:45:41;96735.22;;;8.42;91.77
16030;BME280;34770;49.272;11.070;2024-03-02T08:48:08;96736.56;;;8.55;91.85
16030;BME280;34770;49.272;11.070;2024-03-02T08:50:34;96744.75;;;8.63;91.01
16030;BME280;34770;49.272;11.070;2024-03-02T08:52:59;96742.16;;;8.71;90.81
16030;BME280;34770;49.272;11.070;2024-03-02T08:55:25;96753.13;;;8.88;90.68
16030;BME280;34770;49.272;11.070;2024-03-02T08:57:50;96741.59;;;8.95;89.51
16030;BME280;34770;49.272;11.070;2024-03-02T09:00:16;96754.56;;;9.27;88.12
16030;BME280;34770;49.272;11.070;2024-03-02T09:02:44;96749.19;;;9.62;86.80
16030;BME280;34770;49.272;11.070;2024-03-02T09:05:10;96744.19;;;9.75;85.36
16030;BME280;34770;49.272;11.070;2024-03-02T09:07:35;96735.16;;;9.84;84.73
16030;BME280;34770;49.272;11.070;2024-03-02T09:10:01;96741.13;;;10.14;83.85
16030;BME280;34770;49.272;11.070;2024-03-02T09:12:26;96741.69;;;10.25;82.43
16030;BME280;34770;49.272;11.070;2024-03-02T09:14:51;96732.59;;;10.26;81.27
16030;BME280;34770;49.272;11.070;2024-03-02T09:17:17;96755.56;;;10.56;80.97
16030;BME280;34770;49.272;11.070;2024-03-02T09:19:42;96754.00;;;10.79;80.62
16030;BME280;34770;49.272;11.070;2024-03-02T09:22:08;96738.63;;;10.88;79.11
16030;BME280;34770;49.272;11.070;2024-03-02T09:24:34;96745.69;;;11.31;78.53
16030;BME280;34770;49.272;11.070;2024-03-02T09:27:00;96743.53;;;11.58;76.98
16030;BME280;34770;49.272;11.070;2024-03-02T09:29:25;96747.22;;;11.41;76.51
16030;BME280;34770;49.272;11.070;2024-03-02T09:31:51;96737.91;;;11.52;75.78
16030;BME280;34770;49.272;11.070;2024-03-02T09:34:17;96739.63;;;11.53;75.89
16030;BME280;34770;49.272;11.070;2024-03-02T09:36:43;96737.38;;;11.48;75.08
16030;BME280;34770;49.272;11.070;2024-03-02T09:39:08;96736.06;;;11.60;73.75
16030;BME280;34770;49.272;11.070;2024-03-02T09:41:37;96725.19;;;11.60;73.60
16030;BME280;34770;49.272;11.070;2024-03-02T09:44:04;96728.06;;;11.43;74.17
16030;BME280;34770;49.272;11.070;2024-03-02T09:46:30;96730.97;;;11.49;74.07
16030;BME280;34770;49.272;11.070;2024-03-02T09:48:55;96729.22;;;11.24;74.09
16030;BME280;34770;49.272;11.070;2024-03-02T09:51:21;96734.84;;;11.39;74.39
16030;BME280;34770;49.272;11.070;2024-03-02T09:53:47;96722.63;;;11.43;75.22
16030;BME280;34770;49.272;11.070;2024-03-02T09:56:12;96730.28;;;11.47;72.57
16030;BME280;34770;49.272;11.070;2024-03-02T09:58:38;96730.09;;;11.33;71.96
16030;BME280;34770;49.272;11.070;2024-03-02T10:01:07;96735.63;;;11.15;71.97
16030;BME280;34770;49.272;11.070;2024-03-02T10:03:33;96716.13;;;11.12;71.99
16030;BME280;34770;49.272;11.070;2024-03-02T10:06:21;96734.78;;;11.15;73.11
16030;BME280;34770;49.272;11.070;2024-03-02T10:08:47;96721.59;;;11.20;72.82
16030;BME280;34770;49.272;11.070;2024-03-02T10:11:31;96733.59;;;11.17;72.09
16030;BME280;34770;49.272;11.070;2024-03-02T10:14:05;96722.91;;;11.07;71.94
16030;BME280;34770;49.272;11.070;2024-03-02T10:16:36;96707.34;;;11.18;73.03
16030;BME280;34770;49.272;11.070;2024-03-02T10:19:23;96721.81;;;11.58;71.71
16030;BME280;34770;49.272;11.070;2024-03-02T10:21:54;96718.28;;;11.98;71.34
16030;BME280;34770;49.272;11.070;2024-03-02T10:24:21;96716.25;;;11.84;70.58
16030;BME280;34770;49.272;11.070;2024-03-02T10:26:47;96725.75;;;11.80;69.17
16030;BME280;34770;49.272;11.070;2024-03-02T10:29:13;96725.91;;;11.71;69.69
16030;BME280;34770;49.272;11.070;2024-03-02T10:31:42;96714.03;;;11.72;69.39
16030;BME280;34770;49.272;11.070;2024-03-02T10:34:09;96722.16;;;11.88;68.90
16030;BME280;34770;49.272;11.070;2024-03-02T10:36:36;96679.59;;;11.80;69.00
16030;BME280;34770;49.272;11.070;2024-03-02T10:39:05;96718.97;;;11.84;69.63
16030;BME280;34770;49.272;11.070;2024-03-02T10:41:35;96717.75;;;11.95;69.81
16030;BME280;34770;49.272;11.070;2024-03-02T10:44:05;96718.59;;;12.11;69.21
16030;BME280;34770;49.272;11.070;2024-03-02T10:46:33;96716.16;;;12.33;69.94
16030;BME280;34770;49.272;11.070;2024-03-02T10:48:59;96718.66;;;12.50;68.94
16030;BME280;34770;49.272;11.070;2024-03-02T10:51:26;96706.09;;;12.49;68.71
16030;BME280;34770;49.272;11.070;2024-03-02T10:53:53;96707.25;;;12.55;67.40
16030;BME280;34770;49.272;11.070;2024-03-02T10:56:28;96699.78;;;12.57;67.48
16030;BME280;34770;49.272;11.070;2024-03-02T10:59:03;96712.50;;;12.64;67.61
16030;BME280;34770;49.272;11.070;2024-03-02T11:01:32;96703.66;;;12.70;68.11
16030;BME280;34770;49.272;11.070;2024-03-02T11:03:59;96701.75;;;12.32;68.06
16030;BME280;34770;49.272;11.070;2024-03-02T11:06:28;96701.94;;;12.14;68.06
16030;BME280;34770;49.272;11.070;2024-03-02T11:08:55;96704.31;;;12.17;68.17
16030;BME280;34770;49.272;11.070;2024-03-02T11:11:28;96697.53;;;12.13;68.83
16030;BME280;34770;49.272;11.070;2024-03-02T11:13:56;96695.84;;;12.20;68.39
16030;BME280;34770;49.272;11.070;2024-03-02T11:16:42;96699.78;;;11.86;69.64
16030;BME280;34770;49.272;11.070;2024-03-02T11:19:11;96695.38;;;11.77;70.53
16030;BME280;34770;49.272;11.070;2024-03-02T11:21:38;96693.50;;;11.77;70.52
16030;BME280;34770;49.272;11.070;2024-03-02T11:26:52;96680.94;;;11.60;70.45
16030;BME280;34770;49.272;11.070;2024-03-02T11:32:05;96680.97;;;11.92;70.31
16030;BME280;34770;49.272;11.070;2024-03-02T11:34:33;96682.63;;;11.93;68.84
16030;BME280;34770;49.272;11.070;2024-03-02T11:37:00;96687.69;;;12.04;69.06
16030;BME280;34770;49.272;11.070;2024-03-02T11:39:26;96673.13;;;11.97;69.15
16030;BME280;34770;49.272;11.070;2024-03-02T11:41:52;96676.31;;;12.17;69.03
16030;BME280;34770;49.272;11.070;2024-03-02T11:44:17;96666.06;;;12.35;67.39
16030;BME280;34770;49.272;11.070;2024-03-02T11:47:01;96676.25;;;12.33;66.77
16030;BME280;34770;49.272;11.070;2024-03-02T11:49:44;96679.69;;;12.66;66.03
16030;BME280;34770;49.272;11.070;2024-03-02T11:52:13;96678.25;;;12.47;66.78
16030;BME280;34770;49.272;11.070;2024-03-02T11:54:42;96675.53;;;12.47;66.82
16030;BME280;34770;49.272;11.070;2024-03-02T11:57:18;96670.31;;;12.76;66.28
16030;BME280;34770;49.272;11.070;2024-03-02T11:59:45;96658.94;;;13.04;64.34
16030;BME280;34770;49.272;11.070;2024-03-02T12:02:18;96660.31;;;13.30;63.17
16030;BME280;34770;49.272;11.070;2024-03-02T12:04:45;96650.34;;;13.23;63.20
16030;BME280;34770;49.272;11.070;2024-03-02T12:07:11;96650.78;;;13.34;62.99
16030;BME280;34770;49.272;11.070;2024-03-02T12:09:38;96650.44;;;13.75;62.67
16030;BME280;34770;49.272;11.070;2024-03-02T12:12:07;96651.31;;;13.90;60.77
16030;BME280;34770;49.272;11.070;2024-03-02T12:14:37;96647.84;;;13.96;60.89
16030;BME280;34770;49.272;11.070;2024-03-02T12:17:04;96653.38;;;13.88;59.97
16030;BME280;34770;49.272;11.070;2024-03-02T12:19:31;96643.53;;;13.64;60.66
16030;BME280;34770;49.272;11.070;2024-03-02T12:21:57;96633.91;;;13.39;60.22
16030;BME280;34770;49.272;11.070;2024-03-02T12:24:23;96641.91;;;13.18;62.44
16030;BME280;34770;49.272;11.070;2024-03-02T12:26:50;96637.53;;;13.09;62.10
16030;BME280;34770;49.272;11.070;2024-03-02T12:29:16;96626.69;;;12.70;63.54
16030;BME280;34770;49.272;11.070;2024-03-02T12:31:43;96632.38;;;12.91;63.17
16030;BME280;34770;49.272;11.070;2024-03-02T12:34:15;96622.66;;;12.58;63.93
16030;BME280;34770;49.272;11.070;2024-03-02T12:36:42;96603.34;;;12.53;64.07
16030;BME280;34770;49.272;11.070;2024-03-02T12:39:09;96622.19;;;12.85;63.56
16030;BME280;34770;49.272;11.070;2024-03-02T12:41:38;96619.84;;;12.82;62.32
16030;BME280;34770;49.272;11.070;2024-03-02T12:44:04;96625.81;;;13.31;62.25
16030;BME280;34770;49.272;11.070;2024-03-02T12:46:31;96618.00;;;13.28;61.21
16030;BME280;34770;49.272;11.070;2024-03-02T12:48:57;96606.59;;;13.84;60.51
16030;BME280;34770;49.272;11.070;2024-03-02T12:51:23;96601.31;;;14.20;57.57
16030;BME280;34770;49.272;11.070;2024-03-02T12:53:55;96594.34;;;14.32;56.21
16030;BME280;34770;49.272;11.070;2024-03-02T12:56:21;96607.09;;;14.76;56.08
16030;BME280;34770;49.272;11.070;2024-03-02T12:58:47;96596.59;;;14.94;56.75